sensor_id;sensor_type;location;lat;lon;timestamp;temperature;humidity
51655;DHT22;37732;53.106;7.030;2023-03-03T00:00:27;1.80;99.90
51655;DHT22;37732;53.106;7.030;2023-03-03T00:02:54;1.80;99.90
51655;DHT22;37732;53.106;7.030;2023-03-03T00:05:20;2.00;99.90
51655;DHT22;37732;53.106;7.030;2023-03-03T00:07:46;1.80;99.90
51655;DHT22;37732;53.106;7.030;2023-03-03T00:10:13;2.50;99.90
51655;DHT22;37732;53.106;7.030;2023-03-03T00:12:49;1.90;99.90
51655;DHT22;37732;53.106;7.030;2023-03-03T00:15:18;1.90;99.90
51655;DHT22;37732;53.106;7.030;2023-03-03T00:17:44;2.00;99.90
51655;DHT22;37732;53.106;7.030;2023-03-03T00:20:29;1.90;99.90
51655;DHT22;37732;53.106;7.030;2023-03-03T00:22:57;1.90;99.90
51655;DHT22;37732;53.106;7.030;2023-03-03T00:25:30;1.90;99.90
51655;DHT22;37732;53.106;7.030;2023-03-03T00:28:24;2.00;99.90
51655;DHT22;37732;53.106;7.030;2023-03-03T00:30:51;2.00;99.90
51655;DHT22;37732;53.106;7.030;2023-03-03T00:33:32;2.60;99.90
51655;DHT22;37732;53.106;7.030;2023-03-03T00:38:39;2.10;99.90
51655;DHT22;37732;53.106;7.030;2023-03-03T00:41:21;2.50;99.90
51655;DHT22;37732;53.106;7.030;2023-03-03T00:43:48;2.10;99.90
51655;DHT22;37732;53.106;7.030;2023-03-03T00:46:21;2.50;99.90
51655;DHT22;37732;53.106;7.030;2023-03-03T00:48:48;2.10;99.90
51655;DHT22;37732;53.106;7.030;2023-03-03T00:51:29;2.10;99.90
51655;DHT22;37732;53.106;7.030;2023-03-03T00:53:56;2.20;99.90
51655;DHT22;37732;53.106;7.030;2023-03-03T00:56:22;2.60;99.90
51655;DHT22;37732;53.106;7.030;2023-03-03T00:58:48;2.30;99.90
51655;DHT22;37732;53.106;7.030;2023-03-03T01:01:15;3.10;99.90
51655;DHT22;37732;53.106;7.030;2023-03-03T01:03:41;2.80;99.90
51655;DHT22;37732;53.106;7.030;2023-03-03T01:06:09;2.30;99.90
51655;DHT22;37732;53.106;7.030;2023-03-03T01:08:35;2.30;99.90
51655;DHT22;37732;53.106;7.030;2023-03-03T01:11:22;2.40;99.90
51655;DHT22;37732;53.106;7.030;2023-03-03T01:13:49;2.30;99.90
51655;DHT22;37732;53.106;7.030;2023-03-03T01:16:16;2.30;99.90
51655;DHT22;37732;53.106;7.030;2023-03-03T01:18:42;2.30;99.90
51655;DHT22;37732;53.106;7.030;2023-03-03T01:21:08;2.50;99.90
51655;DHT22;37732;53.106;7.030;2023-03-03T01:23:34;2.30;99.90
51655;DHT22;37732;53.106;7.030;2023-03-03T01:26:00;2.30;99.90
51655;DHT22;37732;53.106;7.030;2023-03-03T01:28:26;2.80;99.90
51655;DHT22;37732;53.106;7.030;2023-03-03T01:30:52;2.30;99.90
51655;DHT22;37732;53.106;7.030;2023-03-03T01:33:18;3.10;99.90
51655;DHT22;37732;53.106;7.030;2023-03-03T01:35:45;2.50;99.90
51655;DHT22;37732;53.106;7.030;2023-03-03T01:38:12;2.40;99.90
51655;DHT22;37732;53.106;7.030;2023-03-03T01:40:37;2.40;99.90
51655;DHT22;37732;53.106;7.030;2023-03-03T01:43:03;2.40;99.90
51655;DHT22;37732;53.106;7.030;2023-03-03T01:45:41;2.40;99.90
51655;DHT22;37732;53.106;7.030;2023-03-03T01:51:41;2.50;99.90
51655;DHT22;37732;53.106;7.030;2023-03-03T01:53:43;2.30;99.90
51655;DHT22;37732;53.106;7.030;2023-03-03T01:56:10;2.40;99.90
51655;DHT22;37732;53.106;7.030;2023-03-03T01:58:40;2.70;99.90
51655;DHT22;37732;53.106;7.030;2023-03-03T02:03:42;2.40;99.90
51655;DHT22;37732;53.106;7.030;2023-03-03T02:06:14;2.40;99.90
51655;DHT22;37732;53.106;7.030;2023-03-03T02:11:16;2.40;99.90
51655;DHT22;37732;53.106;7.030;2023-03-03T02:13:43;2.60;99.90
51655;DHT22;37732;53.106;7.030;2023-03-03T02:16:08;2.80;99.90
51655;DHT22;37732;53.106;7.030;2023-03-03T02:18:34;2.40;99.90
51655;DHT22;37732;53.106;7.030;2023-03-03T02:21:11;2.50;99.90
51655;DHT22;37732;53.106;7.030;2023-03-03T02:24:08;2.50;99.90
51655;DHT22;37732;53.106;7.030;2023-03-03T02:26:39;2.50;99.90
51655;DHT22;37732;53.106;7.030;2023-03-03T02:29:07;2.50;99.90
51655;DHT22;37732;53.106;7.030;2023-03-03T02:31:33;2.50;99.90
51655;DHT22;37732;53.106;7.030;2023-03-03T02:34:00;2.50;99.90
51655;DHT22;37732;53.106;7.030;2023-03-03T02:36:32;2.60;99.90
51655;DHT22;37732;53.106;7.030;2023-03-03T02:39:15;2.50;99.90
51655;DHT22;37732;53.106;7.030;2023-03-03T02:41:57;2.50;99.90
51655;DHT22;37732;53.106;7.030;2023-03-03T02:44:27;2.60;99.90
51655;DHT22;37732;53.106;7.030;2023-03-03T02:46:54;2.90;99.90
51655;DHT22;37732;53.106;7.030;2023-03-03T02:49:28;2.80;99.90
51655;DHT22;37732;53.106;7.030;2023-03-03T02:51:58;2.50;99.90
51655;DHT22;37732;53.106;7.030;2023-03-03T02:54:25;2.50;99.90
51655;DHT22;37732;53.106;7.030;2023-03-03T02:56:52;3.10;99.90
51655;DHT22;37732;53.106;7.030;2023-03-03T02:59:18;3.40;99.90
51655;DHT22;37732;53.106;7.030;2023-03-03T03:01:45;2.60;99.90
51655;DHT22;37732;53.106;7.030;2023-03-03T03:04:13;2.50;99.90
51655;DHT22;37732;53.106;7.030;2023-03-03T03:06:40;2.50;99.90
51655;DHT22;37732;53.106;7.030;2023-03-03T03:09:07;2.50;99.90
51655;DHT22;37732;53.106;7.030;2023-03-03T03:11:34;2.50;99.90
51655;DHT22;37732;53.106;7.030;2023-03-03T03:14:01;2.50;99.90
51655;DHT22;37732;53.106;7.030;2023-03-03T03:16:27;2.50;99.90
51655;DHT22;37732;53.106;7.030;2023-03-03T03:18:53;2.40;99.90
51655;DHT22;37732;53.106;7.030;2023-03-03T03:21:18;2.60;99.90
51655;DHT22;37732;53.106;7.030;2023-03-03T03:23:44;2.40;99.90
51655;DHT22;37732;53.106;7.030;2023-03-03T03:26:10;2.40;99.90
51655;DHT22;37732;53.106;7.030;2023-03-03T03:28:36;2.40;99.90
51655;DHT22;37732;53.106;7.030;2023-03-03T03:31:03;2.40;99.90
51655;DHT22;37732;53.106;7.030;2023-03-03T03:33:29;2.40;99.90
51655;DHT22;37732;53.106;7.030;2023-03-03T03:35:55;2.40;99.90
51655;DHT22;37732;53.106;7.030;2023-03-03T03:38:22;2.30;99.90
51655;DHT22;37732;53.106;7.030;2023-03-03T03:40:48;2.30;99.90
51655;DHT22;37732;53.106;7.030;2023-03-03T03:43:13;2.90;99.90
51655;DHT22;37732;53.106;7.030;2023-03-03T03:45:42;2.30;99.90
51655;DHT22;37732;53.106;7.030;2023-03-03T03:48:07;2.30;99.90
51655;DHT22;37732;53.106;7.030;2023-03-03T03:50:33;3.20;99.90
51655;DHT22;37732;53.106;7.030;2023-03-03T03:52:59;2.30;99.90
51655;DHT22;37732;53.106;7.030;2023-03-03T03:55:25;2.40;99.90
51655;DHT22;37732;53.106;7.030;2023-03-03T03:57:50;2.40;99.90
51655;DHT22;37732;53.106;7.030;2023-03-03T04:00:16;2.40;99.90
51655;DHT22;37732;53.106;7.030;2023-03-03T04:02:42;2.40;99.90
51655;DHT22;37732;53.106;7.030;2023-03-03T04:05:08;2.40;99.90
51655;DHT22;37732;53.106;7.030;2023-03-03T04:07:34;2.40;99.90
51655;DHT22;37732;53.106;7.030;2023-03-03T04:09:59;2.80;99.90
51655;DHT22;37732;53.106;7.030;2023-03-03T04:12:25;3.20;99.90
51655;DHT22;37732;53.106;7.030;2023-03-03T04:14:51;3.30;99.90
51655;DHT22;37732;53.106;7.030;2023-03-03T04:17:18;2.90;99.90
51655;DHT22;37732;53.106;7.030;2023-03-03T04:19:44;2.30;99.90
51655;DHT22;37732;53.106;7.030;2023-03-03T04:22:10;2.90;99.90
51655;DHT22;37732;53.106;7.030;2023-03-03T04:24:37;2.30;99.90
51655;DHT22;37732;53.106;7.030;2023-03-03T04:27:03;2.30;99.90
51655;DHT22;37732;53.106;7.030;2023-03-03T04:29:29;2.60;99.90
51655;DHT22;37732;53.106;7.030;2023-03-03T04:31:55;2.20;99.90
51655;DHT22;37732;53.106;7.030;2023-03-03T04:34:20;2.20;99.90
51655;DHT22;37732;53.106;7.030;2023-03-03T04:36:46;2.20;99.90
51655;DHT22;37732;53.106;7.030;2023-03-03T04:39:12;2.20;99.90
51655;DHT22;37732;53.106;7.030;2023-03-03T04:41:37;2.10;99.90
51655;DHT22;37732;53.106;7.030;2023-03-03T04:44:03;2.50;99.90
51655;DHT22;37732;53.106;7.030;2023-03-03T04:46:29;2.20;99.90
51655;DHT22;37732;53.106;7.030;2023-03-03T04:48:54;2.30;99.90
51655;DHT22;37732;53.106;7.030;2023-03-03T04:51:21;2.20;99.90
51655;DHT22;37732;53.106;7.030;2023-03-03T04:53:46;2.10;99.90
51655;DHT22;37732;53.106;7.030;2023-03-03T04:56:12;2.20;99.90
51655;DHT22;37732;53.106;7.030;2023-03-03T04:58:38;2.10;99.90
51655;DHT22;37732;53.106;7.030;2023-03-03T05:01:04;2.10;99.90
51655;DHT22;37732;53.106;7.030;2023-03-03T05:03:30;2.10;99.90
51655;DHT22;37732;53.106;7.030;2023-03-03T05:05:55;2.40;99.90
51655;DHT22;37732;53.106;7.030;2023-03-03T05:08:21;2.10;99.90
51655;DHT22;37732;53.106;7.030;2023-03-03T05:10:50;2.00;99.90
51655;DHT22;37732;53.106;7.030;2023-03-03T05:13:16;2.90;99.90
51655;DHT22;37732;53.106;7.030;2023-03-03T05:15:42;2.00;99.90
51655;DHT22;37732;53.106;7.030;2023-03-03T05:18:07;2.10;99.90
51655;DHT22;37732;53.106;7.030;2023-03-03T05:20:33;2.00;99.90
51655;DHT22;37732;53.106;7.030;2023-03-03T05:22:59;1.90;99.90
51655;DHT22;37732;53.106;7.030;2023-03-03T05:25:26;1.90;99.90
51655;DHT22;37732;53.106;7.030;2023-03-03T05:27:51;2.10;99.90
51655;DHT22;37732;53.106;7.030;2023-03-03T05:30:19;1.90;99.90
51655;DHT22;37732;53.106;7.030;2023-03-03T05:32:45;1.90;99.90
51655;DHT22;37732;53.106;7.030;2023-03-03T05:35:11;1.90;99.90
51655;DHT22;37732;53.106;7.030;2023-03-03T05:37:36;1.80;99.90
51655;DHT22;37732;53.106;7.030;2023-03-03T05:40:04;1.80;99.90
51655;DHT22;37732;53.106;7.030;2023-03-03T05:42:31;1.80;99.90
51655;DHT22;37732;53.106;7.030;2023-03-03T05:44:56;1.70;99.90
51655;DHT22;37732;53.106;7.030;2023-03-03T05:47:22;2.50;99.90
51655;DHT22;37732;53.106;7.030;2023-03-03T05:49:48;1.80;99.90
51655;DHT22;37732;53.106;7.030;2023-03-03T05:52:14;1.70;99.90
51655;DHT22;37732;53.106;7.030;2023-03-03T05:54:39;2.40;99.90
51655;DHT22;37732;53.106;7.030;2023-03-03T05:57:05;1.80;99.90
51655;DHT22;37732;53.106;7.030;2023-03-03T05:59:30;1.90;99.90
51655;DHT22;37732;53.106;7.030;2023-03-03T06:01:56;1.60;99.90
51655;DHT22;37732;53.106;7.030;2023-03-03T06:04:22;1.60;99.90
51655;DHT22;37732;53.106;7.030;2023-03-03T06:06:47;1.70;99.90
51655;DHT22;37732;53.106;7.030;2023-03-03T06:09:14;1.50;99.90
51655;DHT22;37732;53.106;7.030;2023-03-03T06:11:40;1.40;99.90
51655;DHT22;37732;53.106;7.030;2023-03-03T06:14:05;2.30;99.90
51655;DHT22;37732;53.106;7.030;2023-03-03T06:16:31;1.30;99.90
51655;DHT22;37732;53.106;7.030;2023-03-03T06:18:57;2.10;99.90
51655;DHT22;37732;53.106;7.030;2023-03-03T06:21:22;1.30;99.90
51655;DHT22;37732;53.106;7.030;2023-03-03T06:23:48;1.30;99.90
51655;DHT22;37732;53.106;7.030;2023-03-03T06:26:13;1.30;99.90
51655;DHT22;37732;53.106;7.030;2023-03-03T06:28:39;1.40;99.90
51655;DHT22;37732;53.106;7.030;2023-03-03T06:31:05;1.20;99.90
51655;DHT22;37732;53.106;7.030;2023-03-03T06:33:30;1.20;99.90
51655;DHT22;37732;53.106;7.030;2023-03-03T06:35:56;1.20;99.90
51655;DHT22;37732;53.106;7.030;2023-03-03T06:38:22;1.90;99.90
51655;DHT22;37732;53.106;7.030;2023-03-03T06:40:47;1.40;99.90
51655;DHT22;37732;53.106;7.030;2023-03-03T06:43:13;1.20;99.90
51655;DHT22;37732;53.106;7.030;2023-03-03T06:45:39;2.00;99.90
51655;DHT22;37732;53.106;7.030;2023-03-03T06:48:05;1.30;99.90
51655;DHT22;37732;53.106;7.030;2023-03-03T06:50:30;1.30;99.90
51655;DHT22;37732;53.106;7.030;2023-03-03T06:53:12;1.30;99.90
51655;DHT22;37732;53.106;7.030;2023-03-03T06:55:38;2.00;99.90
51655;DHT22;37732;53.106;7.030;2023-03-03T06:58:14;1.70;99.90
51655;DHT22;37732;53.106;7.030;2023-03-03T07:00:41;1.30;99.90
51655;DHT22;37732;53.106;7.030;2023-03-03T07:03:21;1.70;99.90
51655;DHT22;37732;53.106;7.030;2023-03-03T07:05:47;1.30;99.90
51655;DHT22;37732;53.106;7.030;2023-03-03T07:08:21;2.20;99.90
51655;DHT22;37732;53.106;7.030;2023-03-03T07:10:49;1.40;99.90
51655;DHT22;37732;53.106;7.030;2023-03-03T07:13:27;1.70;99.90
51655;DHT22;37732;53.106;7.030;2023-03-03T07:15:55;1.40;99.90
51655;DHT22;37732;53.106;7.030;2023-03-03T07:18:34;1.40;99.90
51655;DHT22;37732;53.106;7.030;2023-03-03T07:21:35;1.50;99.90
51655;DHT22;37732;53.106;7.030;2023-03-03T07:24:28;1.50;99.90
51655;DHT22;37732;53.106;7.030;2023-03-03T07:29:29;1.40;99.90
51655;DHT22;37732;53.106;7.030;2023-03-03T07:31:57;1.50;99.90
51655;DHT22;37732;53.106;7.030;2023-03-03T07:34:30;1.80;99.90
51655;DHT22;37732;53.106;7.030;2023-03-03T07:37:12;1.50;99.90
51655;DHT22;37732;53.106;7.030;2023-03-03T07:39:46;1.60;99.90
51655;DHT22;37732;53.106;7.030;2023-03-03T07:42:16;1.60;99.90
51655;DHT22;37732;53.106;7.030;2023-03-03T07:44:45;1.60;99.90
51655;DHT22;37732;53.106;7.030;2023-03-03T07:49:46;1.80;99.90
51655;DHT22;37732;53.106;7.030;2023-03-03T07:52:31;1.60;99.90
51655;DHT22;37732;53.106;7.030;2023-03-03T07:55:33;1.60;99.90
51655;DHT22;37732;53.106;7.030;2023-03-03T08:03:44;1.60;99.90
51655;DHT22;37732;53.106;7.030;2023-03-03T08:06:30;2.00;99.90
51655;DHT22;37732;53.106;7.030;2023-03-03T08:11:48;1.80;99.90
51655;DHT22;37732;53.106;7.030;2023-03-03T08:14:15;1.90;99.90
51655;DHT22;37732;53.106;7.030;2023-03-03T08:16:43;2.00;99.90
51655;DHT22;37732;53.106;7.030;2023-03-03T08:19:11;2.10;99.90
51655;DHT22;37732;53.106;7.030;2023-03-03T08:21:38;2.70;99.90
51655;DHT22;37732;53.106;7.030;2023-03-03T08:24:04;2.20;99.90
51655;DHT22;37732;53.106;7.030;2023-03-03T08:26:29;2.30;99.90
51655;DHT22;37732;53.106;7.030;2023-03-03T08:28:55;2.40;99.90
51655;DHT22;37732;53.106;7.030;2023-03-03T08:31:21;2.40;99.90
51655;DHT22;37732;53.106;7.030;2023-03-03T08:33:46;2.40;99.90
51655;DHT22;37732;53.106;7.030;2023-03-03T08:36:13;2.40;99.90
51655;DHT22;37732;53.106;7.030;2023-03-03T08:38:39;2.40;99.90
51655;DHT22;37732;53.106;7.030;2023-03-03T08:41:05;2.70;99.90
51655;DHT22;37732;53.106;7.030;2023-03-03T08:43:31;2.50;99.90
51655;DHT22;37732;53.106;7.030;2023-03-03T08:45:59;2.50;99.90
51655;DHT22;37732;53.106;7.030;2023-03-03T08:48:25;2.50;99.90
51655;DHT22;37732;53.106;7.030;2023-03-03T08:50:51;3.30;99.90
51655;DHT22;37732;53.106;7.030;2023-03-03T08:53:18;3.20;99.90
51655;DHT22;37732;53.106;7.030;2023-03-03T08:55:44;2.60;99.90
51655;DHT22;37732;53.106;7.030;2023-03-03T08:58:11;2.60;99.90
51655;DHT22;37732;53.106;7.030;2023-03-03T09:00:37;2.70;99.90
51655;DHT22;37732;53.106;7.030;2023-03-03T09:03:03;2.70;99.90
51655;DHT22;37732;53.106;7.030;2023-03-03T09:05:32;2.70;99.90
51655;DHT22;37732;53.106;7.030;2023-03-03T09:07:58;2.80;99.90
51655;DHT22;37732;53.106;7.030;2023-03-03T09:10:26;2.80;99.90
51655;DHT22;37732;53.106;7.030;2023-03-03T09:12:54;3.10;99.90
51655;DHT22;37732;53.106;7.030;2023-03-03T09:15:36;2.90;99.90
51655;DHT22;37732;53.106;7.030;2023-03-03T09:18:40;3.00;99.90
51655;DHT22;37732;53.106;7.030;2023-03-03T09:21:28;3.50;99.90
51655;DHT22;37732;53.106;7.030;2023-03-03T09:24:00;3.20;99.90
51655;DHT22;37732;53.106;7.030;2023-03-03T09:28:54;3.50;99.90
51655;DHT22;37732;53.106;7.030;2023-03-03T09:33:52;3.80;99.90
51655;DHT22;37732;53.106;7.030;2023-03-03T09:36:38;3.80;99.90
51655;DHT22;37732;53.106;7.030;2023-03-03T09:49:37;4.20;99.90
51655;DHT22;37732;53.106;7.030;2023-03-03T09:52:29;4.20;99.90
51655;DHT22;37732;53.106;7.030;2023-03-03T10:03:07;4.20;99.90
51655;DHT22;37732;53.106;7.030;2023-03-03T10:05:46;4.40;99.90
51655;DHT22;37732;53.106;7.030;2023-03-03T10:11:07;4.50;99.90
51655;DHT22;37732;53.106;7.030;2023-03-03T10:13:56;4.60;99.90
51655;DHT22;37732;53.106;7.030;2023-03-03T10:19:01;4.70;99.90
51655;DHT22;37732;53.106;7.030;2023-03-03T10:21:34;4.80;99.90
51655;DHT22;37732;53.106;7.030;2023-03-03T10:24:27;4.80;99.90
51655;DHT22;37732;53.106;7.030;2023-03-03T10:33:17;5.00;99.90
51655;DHT22;37732;53.106;7.030;2023-03-03T10:35:42;5.20;99.90
51655;DHT22;37732;53.106;7.030;2023-03-03T10:47:00;5.60;99.90
51655;DHT22;37732;53.106;7.030;2023-03-03T10:52:38;6.10;99.90
51655;DHT22;37732;53.106;7.030;2023-03-03T11:01:24;6.70;99.90
51655;DHT22;37732;53.106;7.030;2023-03-03T11:27:24;7.40;99.90
51655;DHT22;37732;53.106;7.030;2023-03-03T11:38:05;7.80;99.90
51655;DHT22;37732;53.106;7.030;2023-03-03T11:40:41;8.00;99.90
51655;DHT22;37732;53.106;7.030;2023-03-03T11:43:21;8.10;99.90
51655;DHT22;37732;53.106;7.030;2023-03-03T11:45:55;8.20;99.90
51655;DHT22;37732;53.106;7.030;2023-03-03T11:48:53;8.20;99.90
51655;DHT22;37732;53.106;7.030;2023-03-03T11:52:10;8.20;99.90
51655;DHT22;37732;53.106;7.030;2023-03-03T11:54:30;8.20;99.90
51655;DHT22;37732;53.106;7.030;2023-03-03T11:59:55;8.20;99.90
51655;DHT22;37732;53.106;7.030;2023-03-03T12:02:56;8.10;99.90
51655;DHT22;37732;53.106;7.030;2023-03-03T12:08:28;8.10;99.90
51655;DHT22;37732;53.106;7.030;2023-03-03T12:16:41;8.20;99.90
51655;DHT22;37732;53.106;7.030;2023-03-03T12:19:21;8.10;99.90
51655;DHT22;37732;53.106;7.030;2023-03-03T12:22:10;8.10;99.90
51655;DHT22;37732;53.106;7.030;2023-03-03T12:28:08;8.00;99.90
51655;DHT22;37732;53.106;7.030;2023-03-03T12:38:39;7.80;99.90
51655;DHT22;37732;53.106;7.030;2023-03-03T12:43:58;7.80;99.90
51655;DHT22;37732;53.106;7.030;2023-03-03T12:49:07;7.80;99.90
51655;DHT22;37732;53.106;7.030;2023-03-03T12:57:05;7.90;99.90
51655;DHT22;37732;53.106;7.030;2023-03-03T13:02:34;8.20;99.90
51655;DHT22;37732;53.106;7.030;2023-03-03T13:10:40;8.20;99.90
51655;DHT22;37732;53.106;7.030;2023-03-03T13:13:26;8.10;99.90
51655;DHT22;37732;53.106;7.030;2023-03-03T13:26:34;8.10;99.90
51655;DHT22;37732;53.106;7.030;2023-03-03T13:29:26;8.30;99.90
51655;DHT22;37732;53.106;7.030;2023-03-03T13:32:18;8.40;99.90
51655;DHT22;37732;53.106;7.030;2023-03-03T13:37:26;8.10;99.90
51655;DHT22;37732;53.106;7.030;2023-03-03T13:40:02;8.00;99.90
51655;DHT22;37732;53.106;7.030;2023-03-03T13:50:27;8.40;99.90
51655;DHT22;37732;53.106;7.030;2023-03-03T13:55:44;8.30;99.90
51655;DHT22;37732;53.106;7.030;2023-03-03T14:01:05;8.50;99.90
51655;DHT22;37732;53.106;7.030;2023-03-03T14:03:53;8.60;99.90
51655;DHT22;37732;53.106;7.030;2023-03-03T14:06:25;8.60;99.90
51655;DHT22;37732;53.106;7.030;2023-03-03T14:09:34;8.60;99.90
51655;DHT22;37732;53.106;7.030;2023-03-03T14:12:17;8.80;99.90
51655;DHT22;37732;53.106;7.030;2023-03-03T14:20:48;8.80;99.90
51655;DHT22;37732;53.106;7.030;2023-03-03T14:23:17;8.80;99.90
51655;DHT22;37732;53.106;7.030;2023-03-03T14:25:59;8.80;99.90
51655;DHT22;37732;53.106;7.030;2023-03-03T14:28:50;8.70;99.90
51655;DHT22;37732;53.106;7.030;2023-03-03T14:34:13;8.70;99.90
51655;DHT22;37732;53.106;7.030;2023-03-03T14:36:41;8.80;99.90
51655;DHT22;37732;53.106;7.030;2023-03-03T14:39:49;8.70;99.90
51655;DHT22;37732;53.106;7.030;2023-03-03T14:47:57;8.40;99.90
51655;DHT22;37732;53.106;7.030;2023-03-03T14:51:14;8.30;99.90
51655;DHT22;37732;53.106;7.030;2023-03-03T14:53:36;8.20;99.90
51655;DHT22;37732;53.106;7.030;2023-03-03T14:58:47;8.10;99.90
51655;DHT22;37732;53.106;7.030;2023-03-03T15:01:31;8.00;99.90
51655;DHT22;37732;53.106;7.030;2023-03-03T15:06:43;7.90;99.90
51655;DHT22;37732;53.106;7.030;2023-03-03T15:09:36;7.80;99.90
51655;DHT22;37732;53.106;7.030;2023-03-03T15:12:25;7.80;99.90
51655;DHT22;37732;53.106;7.030;2023-03-03T15:15:06;7.80;99.90
51655;DHT22;37732;53.106;7.030;2023-03-03T15:18:10;7.70;99.90
51655;DHT22;37732;53.106;7.030;2023-03-03T15:20:36;7.60;99.90
51655;DHT22;37732;53.106;7.030;2023-03-03T15:28:35;7.50;99.90
51655;DHT22;37732;53.106;7.030;2023-03-03T15:31:22;7.40;99.90
51655;DHT22;37732;53.106;7.030;2023-03-03T15:37:04;7.30;99.90
51655;DHT22;37732;53.106;7.030;2023-03-03T15:40:04;7.30;99.90
51655;DHT22;37732;53.106;7.030;2023-03-03T15:56:44;7.10;99.90
51655;DHT22;37732;53.106;7.030;2023-03-03T16:02:21;7.10;99.90
51655;DHT22;37732;53.106;7.030;2023-03-03T16:05:20;7.10;99.90
51655;DHT22;37732;53.106;7.030;2023-03-03T16:10:54;7.00;99.90
51655;DHT22;37732;53.106;7.030;2023-03-03T16:19:18;6.90;99.90
51655;DHT22;37732;53.106;7.030;2023-03-03T16:24:37;6.90;99.90
51655;DHT22;37732;53.106;7.030;2023-03-03T16:36:07;6.90;99.90
51655;DHT22;37732;53.106;7.030;2023-03-03T16:38:56;6.90;99.90
51655;DHT22;37732;53.106;7.030;2023-03-03T16:41:43;6.90;99.90
51655;DHT22;37732;53.106;7.030;2023-03-03T16:44:15;6.80;99.90
51655;DHT22;37732;53.106;7.030;2023-03-03T16:46:47;6.80;99.90
51655;DHT22;37732;53.106;7.030;2023-03-03T16:49:35;6.80;99.90
51655;DHT22;37732;53.106;7.030;2023-03-03T16:52:16;6.80;99.90
51655;DHT22;37732;53.106;7.030;2023-03-03T16:54:55;6.90;99.90
51655;DHT22;37732;53.106;7.030;2023-03-03T16:57:39;6.80;99.90
51655;DHT22;37732;53.106;7.030;2023-03-03T17:00:28;6.80;99.90
51655;DHT22;37732;53.106;7.030;2023-03-03T17:03:13;6.80;99.90
51655;DHT22;37732;53.106;7.030;2023-03-03T17:06:26;6.80;99.90
51655;DHT22;37732;53.106;7.030;2023-03-03T17:09:27;6.70;99.90
51655;DHT22;37732;53.106;7.030;2023-03-03T17:20:47;6.70;99.90
51655;DHT22;37732;53.106;7.030;2023-03-03T17:45:14;6.50;99.90
51655;DHT22;37732;53.106;7.030;2023-03-03T17:56:31;6.50;99.90
51655;DHT22;37732;53.106;7.030;2023-03-03T18:04:40;6.40;99.90
51655;DHT22;37732;53.106;7.030;2023-03-03T18:10:13;6.40;99.90
51655;DHT22;37732;53.106;7.030;2023-03-03T18:21:04;6.70;99.90
51655;DHT22;37732;53.106;7.030;2023-03-03T18:23:36;6.40;99.90
51655;DHT22;37732;53.106;7.030;2023-03-03T18:31:49;6.30;99.90
51655;DHT22;37732;53.106;7.030;2023-03-03T18:34:30;6.30;99.90
51655;DHT22;37732;53.106;7.030;2023-03-03T18:37:00;6.30;99.90
51655;DHT22;37732;53.106;7.030;2023-03-03T18:44:50;6.20;99.90
51655;DHT22;37732;53.106;7.030;2023-03-03T18:47:16;6.40;99.90
51655;DHT22;37732;53.106;7.030;2023-03-03T18:49:59;6.20;99.90
51655;DHT22;37732;53.106;7.030;2023-03-03T18:57:34;6.20;99.90
51655;DHT22;37732;53.106;7.030;2023-03-03T19:00:15;6.20;99.90
51655;DHT22;37732;53.106;7.030;2023-03-03T19:02:54;6.20;99.90
51655;DHT22;37732;53.106;7.030;2023-03-03T19:05:23;6.20;99.90
51655;DHT22;37732;53.106;7.030;2023-03-03T19:07:58;6.20;99.90
51655;DHT22;37732;53.106;7.030;2023-03-03T19:10:52;6.30;99.90
51655;DHT22;37732;53.106;7.030;2023-03-03T19:16:08;6.20;99.90
51655;DHT22;37732;53.106;7.030;2023-03-03T19:23:53;6.20;99.90
51655;DHT22;37732;53.106;7.030;2023-03-03T19:43:36;6.10;99.90
51655;DHT22;37732;53.106;7.030;2023-03-03T19:52:02;6.00;99.90
51655;DHT22;37732;53.106;7.030;2023-03-03T19:57:35;6.00;99.90
51655;DHT22;37732;53.106;7.030;2023-03-03T20:05:51;6.00;99.90
51655;DHT22;37732;53.106;7.030;2023-03-03T20:11:24;6.00;99.90
51655;DHT22;37732;53.106;7.030;2023-03-03T20:21:32;6.20;99.90
51655;DHT22;37732;53.106;7.030;2023-03-03T20:27:06;6.10;99.90
51655;DHT22;37732;53.106;7.030;2023-03-03T20:32:12;6.00;99.90
51655;DHT22;37732;53.106;7.030;2023-03-03T20:40:19;5.90;99.90
51655;DHT22;37732;53.106;7.030;2023-03-03T20:45:31;5.90;99.90
51655;DHT22;37732;53.106;7.030;2023-03-03T20:50:45;5.90;99.90
51655;DHT22;37732;53.106;7.030;2023-03-03T21:02:02;6.10;99.90
51655;DHT22;37732;53.106;7.030;2023-03-03T21:04:31;5.90;99.90
51655;DHT22;37732;53.106;7.030;2023-03-03T21:06:59;5.90;99.90
51655;DHT22;37732;53.106;7.030;2023-03-03T21:09:35;5.90;99.90
51655;DHT22;37732;53.106;7.030;2023-03-03T21:12:26;5.90;99.90
51655;DHT22;37732;53.106;7.030;2023-03-03T21:15:00;5.90;99.90
51655;DHT22;37732;53.106;7.030;2023-03-03T21:17:28;5.90;99.90
51655;DHT22;37732;53.106;7.030;2023-03-03T21:19:54;5.90;99.90
51655;DHT22;37732;53.106;7.030;2023-03-03T21:22:20;5.90;99.90
51655;DHT22;37732;53.106;7.030;2023-03-03T21:24:56;5.90;99.90
51655;DHT22;37732;53.106;7.030;2023-03-03T21:27:34;5.90;99.90
51655;DHT22;37732;53.106;7.030;2023-03-03T21:32:41;5.90;99.90
51655;DHT22;37732;53.106;7.030;2023-03-03T21:35:13;5.90;99.90
51655;DHT22;37732;53.106;7.030;2023-03-03T21:37:49;6.00;99.90
51655;DHT22;37732;53.106;7.030;2023-03-03T21:42:50;6.00;99.90
51655;DHT22;37732;53.106;7.030;2023-03-03T21:45:16;6.00;99.90
51655;DHT22;37732;53.106;7.030;2023-03-03T21:47:45;6.00;99.90
51655;DHT22;37732;53.106;7.030;2023-03-03T21:50:11;6.00;99.90
51655;DHT22;37732;53.106;7.030;2023-03-03T21:52:37;6.00;99.90
51655;DHT22;37732;53.106;7.030;2023-03-03T21:55:03;6.00;99.90
51655;DHT22;37732;53.106;7.030;2023-03-03T21:57:29;6.00;99.90
51655;DHT22;37732;53.106;7.030;2023-03-03T21:59:55;5.90;99.90
51655;DHT22;37732;53.106;7.030;2023-03-03T22:02:21;6.00;99.90
51655;DHT22;37732;53.106;7.030;2023-03-03T22:04:46;6.00;99.90
51655;DHT22;37732;53.106;7.030;2023-03-03T22:07:12;6.00;99.90
51655;DHT22;37732;53.106;7.030;2023-03-03T22:09:38;6.00;99.90
51655;DHT22;37732;53.106;7.030;2023-03-03T22:12:04;6.10;99.90
51655;DHT22;37732;53.106;7.030;2023-03-03T22:14:30;6.00;99.90
51655;DHT22;37732;53.106;7.030;2023-03-03T22:16:56;6.00;99.90
51655;DHT22;37732;53.106;7.030;2023-03-03T22:19:22;6.00;99.90
51655;DHT22;37732;53.106;7.030;2023-03-03T22:21:48;6.00;99.90
51655;DHT22;37732;53.106;7.030;2023-03-03T22:24:14;6.00;99.90
51655;DHT22;37732;53.106;7.030;2023-03-03T22:26:40;6.00;99.90
51655;DHT22;37732;53.106;7.030;2023-03-03T22:29:06;6.00;99.90
51655;DHT22;37732;53.106;7.030;2023-03-03T22:31:32;6.00;99.90
51655;DHT22;37732;53.106;7.030;2023-03-03T22:33:58;6.00;99.90
51655;DHT22;37732;53.106;7.030;2023-03-03T22:36:23;6.20;99.90
51655;DHT22;37732;53.106;7.030;2023-03-03T22:38:49;6.00;99.90
51655;DHT22;37732;53.106;7.030;2023-03-03T22:41:15;6.00;99.90
51655;DHT22;37732;53.106;7.030;2023-03-03T22:43:41;6.00;99.90
51655;DHT22;37732;53.106;7.030;2023-03-03T22:46:08;6.20;99.90
51655;DHT22;37732;53.106;7.030;2023-03-03T22:48:34;6.00;99.90
51655;DHT22;37732;53.106;7.030;2023-03-03T22:51:00;6.00;99.90